GITN CYXU-CYXU
Flight info
| Callsign | GITN |
|---|---|
| Flight time | 0h 4m |
| Altitude | 1900 |
| Route | CYXU/33 CIRCUITS |
| Aircraft | C172 |
Departure
| Time | 2026-04-20 17:41 |
|---|---|
| Airport | London International Airport (CYXU) |
Arrival
| Time | 2026-04-20 17:45 |
|---|---|
| Airport | London International Airport (CYXU) |
| Time | Latitude | Longitude | Altitude | Speed | Heading |
|---|---|---|---|---|---|
| 2026-04-20 17:34 | 43.02851 | -81.14777 | 898 ft | 0 kts | 285° |
| 2026-04-20 17:36 | 43.02873 | -81.14774 | 898 ft | 6 kts | 58° |
| 2026-04-20 17:36 | 43.02883 | -81.14717 | 897 ft | 6 kts | 87° |
| 2026-04-20 17:37 | 43.02888 | -81.14662 | 897 ft | 6 kts | 50° |
| 2026-04-20 17:37 | 43.02917 | -81.14618 | 897 ft | 6 kts | 50° |
| 2026-04-20 17:37 | 43.02921 | -81.14612 | 897 ft | 0 kts | 50° |
| 2026-04-20 17:39 | 43.02969 | -81.14546 | 899 ft | 15 kts | 37° |
| 2026-04-20 17:39 | 43.03025 | -81.14561 | 899 ft | 0 kts | 319° |
| 2026-04-20 17:40 | 43.03035 | -81.14572 | 899 ft | 14 kts | 318° |
| 2026-04-20 17:40 | 43.03256 | -81.14836 | 903 ft | 65 kts | 318° |
| 2026-04-20 17:40 | 43.03622 | -81.15256 | 1141 ft | 68 kts | 317° |
| 2026-04-20 17:40 | 43.03932 | -81.15677 | 1431 ft | 69 kts | 313° |
| 2026-04-20 17:41 | 43.04302 | -81.16174 | 1677 ft | 78 kts | 316° |
| 2026-04-20 17:41 | 43.04838 | -81.16410 | 1929 ft | 93 kts | 8° |
| 2026-04-20 17:41 | 43.05382 | -81.15838 | 1966 ft | 109 kts | 47° |
| 2026-04-20 17:41 | 43.05619 | -81.14875 | 2020 ft | 115 kts | 91° |
| 2026-04-20 17:42 | 43.05269 | -81.13881 | 2051 ft | 119 kts | 134° |
| 2026-04-20 17:42 | 43.04629 | -81.13074 | 1970 ft | 126 kts | 141° |
| 2026-04-20 17:42 | 43.03955 | -81.12338 | 1982 ft | 121 kts | 142° |
| 2026-04-20 17:42 | 43.03328 | -81.11598 | 1965 ft | 120 kts | 140° |
| 2026-04-20 17:43 | 43.02688 | -81.10859 | 1925 ft | 117 kts | 142° |
| 2026-04-20 17:43 | 43.02041 | -81.10314 | 1948 ft | 101 kts | 180° |
| 2026-04-20 17:43 | 43.01480 | -81.10668 | 1829 ft | 88 kts | 235° |
| 2026-04-20 17:43 | 43.01170 | -81.11290 | 1781 ft | 68 kts | 265° |
| 2026-04-20 17:44 | 43.01297 | -81.11852 | 1591 ft | 65 kts | 308° |
| 2026-04-20 17:44 | 43.01491 | -81.12415 | 1424 ft | 63 kts | 296° |
| 2026-04-20 17:44 | 43.01693 | -81.12927 | 1273 ft | 62 kts | 306° |
| 2026-04-20 17:44 | 43.01971 | -81.13319 | 1133 ft | 56 kts | 316° |
| 2026-04-20 17:45 | 43.02281 | -81.13663 | 995 ft | 55 kts | 316° |
| 2026-04-20 17:45 | 43.02558 | -81.13999 | 907 ft | 46 kts | 315° |
| 2026-04-20 17:45 | 43.02763 | -81.14248 | 901 ft | 41 kts | 318° |
| 2026-04-20 17:45 | 43.03096 | -81.14638 | 934 ft | 80 kts | 316° |
| 2026-04-20 17:46 | 43.03505 | -81.15112 | 1256 ft | 72 kts | 315° |
| 2026-04-20 17:46 | 43.03896 | -81.15596 | 1520 ft | 77 kts | 315° |
| 2026-04-20 17:46 | 43.04264 | -81.16078 | 1883 ft | 77 kts | 318° |
| 2026-04-20 17:46 | 43.04819 | -81.16153 | 1982 ft | 92 kts | 24° |
| 2026-04-20 17:47 | 43.05221 | -81.15411 | 2030 ft | 106 kts | 72° |
| 2026-04-20 17:47 | 43.05116 | -81.14375 | 2049 ft | 117 kts | 112° |
| 2026-04-20 17:47 | 43.04560 | -81.13591 | 2082 ft | 118 kts | 140° |
| 2026-04-20 17:47 | 43.04547 | -81.13576 | 2080 ft | 118 kts | 140° |
| 2026-04-20 17:48 | 43.04529 | -81.13556 | 2076 ft | 118 kts | 140° |
| 2026-04-20 17:48 | 43.04012 | -81.12996 | 2049 ft | 121 kts | 145° |
| 2026-04-20 17:49 | 43.03767 | -81.12764 | 2060 ft | 120 kts | 147° |
| 2026-04-20 17:49 | 43.03085 | -81.12121 | 2120 ft | 115 kts | 148° |
| 2026-04-20 17:49 | 43.02453 | -81.11412 | 2039 ft | 124 kts | 141° |
| 2026-04-20 17:49 | 43.01697 | -81.11025 | 1947 ft | 108 kts | 198° |
| 2026-04-20 17:50 | 43.01127 | -81.11511 | 1721 ft | 93 kts | 234° |
| 2026-04-20 17:50 | 43.00892 | -81.12199 | 1613 ft | 71 kts | 279° |
| 2026-04-20 17:50 | 43.01214 | -81.12683 | 1362 ft | 74 kts | 329° |
| 2026-04-20 17:50 | 43.01679 | -81.13000 | 1151 ft | 74 kts | 329° |
| 2026-04-20 17:51 | 43.02122 | -81.13399 | 955 ft | 69 kts | 311° |
| 2026-04-20 17:51 | 43.02406 | -81.13813 | 905 ft | 53 kts | 311° |
| 2026-04-20 17:51 | 43.02669 | -81.14138 | 899 ft | 62 kts | 320° |
| 2026-04-20 17:51 | 43.03030 | -81.14537 | 1154 ft | 64 kts | 319° |
| 2026-04-20 17:52 | 43.03377 | -81.14920 | 1441 ft | 60 kts | 319° |
| 2026-04-20 17:52 | 43.03727 | -81.15283 | 1717 ft | 62 kts | 321° |
| 2026-04-20 17:52 | 43.04091 | -81.15652 | 1949 ft | 76 kts | 322° |
| 2026-04-20 17:52 | 43.04565 | -81.16123 | 2012 ft | 87 kts | 326° |
| 2026-04-20 17:53 | 43.05184 | -81.16264 | 2028 ft | 96 kts | 8° |
| 2026-04-20 17:53 | 43.05794 | -81.15841 | 2031 ft | 105 kts | 38° |
| 2026-04-20 17:53 | 43.06069 | -81.14902 | 2110 ft | 116 kts | 94° |
| 2026-04-20 17:53 | 43.05585 | -81.14064 | 2137 ft | 121 kts | 148° |
| 2026-04-20 17:54 | 43.04836 | -81.13441 | 2054 ft | 123 kts | 155° |
| 2026-04-20 17:54 | 43.04084 | -81.12950 | 2039 ft | 118 kts | 155° |
| 2026-04-20 17:54 | 43.03355 | -81.12387 | 2028 ft | 116 kts | 153° |
| 2026-04-20 17:54 | 43.02667 | -81.11852 | 2041 ft | 112 kts | 150° |
| 2026-04-20 17:55 | 43.02032 | -81.11271 | 2084 ft | 107 kts | 146° |
| 2026-04-20 17:55 | 43.01435 | -81.10634 | 2089 ft | 112 kts | 142° |
| 2026-04-20 17:55 | 43.00769 | -81.10147 | 2140 ft | 108 kts | 174° |
| 2026-04-20 17:55 | 43.00062 | -81.10283 | 2139 ft | 104 kts | 214° |
| 2026-04-20 17:56 | 42.99624 | -81.11001 | 2089 ft | 97 kts | 255° |
| 2026-04-20 17:56 | 42.99849 | -81.11689 | 2034 ft | 92 kts | 334° |
| 2026-04-20 17:56 | 43.00462 | -81.11907 | 1867 ft | 91 kts | 344° |
| 2026-04-20 17:56 | 43.01050 | -81.12176 | 1549 ft | 87 kts | 325° |
| 2026-04-20 17:57 | 43.01484 | -81.12700 | 1353 ft | 76 kts | 316° |
| 2026-04-20 17:57 | 43.01855 | -81.13155 | 1183 ft | 70 kts | 315° |
| 2026-04-20 17:57 | 43.02230 | -81.13601 | 998 ft | 71 kts | 318° |
| 2026-04-20 17:57 | 43.02572 | -81.14015 | 899 ft | 58 kts | 316° |
| 2026-04-20 17:58 | 43.02781 | -81.14265 | 901 ft | 28 kts | 319° |
| 2026-04-20 17:58 | 43.02901 | -81.14412 | 900 ft | 20 kts | 317° |
| 2026-04-20 17:58 | 43.02957 | -81.14530 | 899 ft | 11 kts | 260° |
| 2026-04-20 17:58 | 43.02919 | -81.14614 | 897 ft | 10 kts | 228° |
| 2026-04-20 17:59 | 43.02909 | -81.14629 | 897 ft | 0 kts | 223° |
| 2026-04-20 18:00 | 43.02902 | -81.14640 | 897 ft | 11 kts | 230° |
| 2026-04-20 18:01 | 43.02829 | -81.14654 | 897 ft | 11 kts | 178° |
| 2026-04-20 18:01 | 43.02791 | -81.14690 | 898 ft | 0 kts | 232° |
| 2026-04-20 18:01 | 43.02782 | -81.14708 | 899 ft | 3 kts | 242° |
| 2026-04-20 18:01 | 43.02779 | -81.14727 | 899 ft | 4 kts | 279° |
| 2026-04-20 18:02 | 43.02781 | -81.14736 | 899 ft | 0 kts | 304° |